Weather at Flying Machines Airstrip

Public forecast

Using degrees Fahrenheit for public forecast. Weather courtesy of forecast.io.

Closest aviation weather report (METAR) to Flying Machines Airstrip

Closest report is Rogers Municipal Airport-Carter Field, 21.6 nm (39.9 km) W. Retrieved 2022/05/22 22:58 UTC (59 minutes ago):

KROG 222258Z 05009KT 10SM BKN065 OVC080 14/07 A3028 RMK AO2 SLP249 T01440067

Closest aviation forecast (TAF) to Flying Machines Airstrip

Closest forecast is Rogers Municipal Airport-Carter Field, 21.6 nm (39.9 km) W. Retrieved 2022/05/22 18:30 UTC (5 hours ago):

TAF KROG 221727Z 2218/2318 06010KT P6SM OVC050